Portada
METAR-TAF:

METAR-TAF

Aeroports :

Aeroport de Gran Canària

Gran Canària, Espanya

latitud: 27-56N, longitud: 015-23W, altitud: 23 m

Observació

L'informe es va fer fa 24 minuts, a les 07:00 UTC
Vent 6 kt del Sud/Sud-Oest
Temperatura 20°C
Humitat 78%
Pressió 1016 hPa
Visibilitat 10 km o més
Escasses núvols a una alçada de 4000 ft
Núvols disperses a una alçada de 8000 ft

METAR: GCLP 220700Z 21006KT 9999 FEW040 SCT080 20/16 Q1016 NOSIG

Hora: 08:24 (07:24 UTC)

Pronòstic

L'informe es va fer fa 5 hores i 24 minuts, a les 02:00 UTC
Pronòstic vàlid del 22 a les 03 UTC al 23 a les 03 UTC
Vent 5 kt del Oest
Visibilitat 10 km o més
Escasses núvols a una alçada de 3000 ft
Evolucionant progressivament
l' 22 a les 09 UTC al 22 a les 11 UTC
Vent 15 kt del Sud
Evolucionant progressivament
l' 22 a les 18 UTC al 22 a les 20 UTC
Vent 7 kt del Oest/Sud-Oest

TAF: GCLP 220200Z 2203/2303 28005KT 9999 FEW030 TX25/2214Z TN18/2205Z BECMG 2209/2211 18015KT BECMG 2218/2220 24007KT

Observacions i pronòstics meteorològics de més de 4000 aeroports (METAR i TAF).

Les estacions disponibles són els punts grocs i vermells al mapa.

Posi el ratolí al punt desitjat per veure el nom de l'estació.

Feu clic per veure les observacions i els pronòstics meteorològics.

Per canviar el mapa: feu clic els botons verds amb una creu de color negre per apropar; al botó verd amb un guió per allunyar la imatge; o en les fletxes verdes per a mapes adjacents.


METAR-TAF: